sensor_id;sensor_type;location;lat;lon;timestamp;temperature;humidity
30069;DHT22;16894;49.456;10.644;2022-09-13T00:00:57;11.60;99.90
30069;DHT22;16894;49.456;10.644;2022-09-13T00:03:24;11.50;99.90
30069;DHT22;16894;49.456;10.644;2022-09-13T00:05:50;11.60;99.90
30069;DHT22;16894;49.456;10.644;2022-09-13T00:08:16;11.50;99.90
30069;DHT22;16894;49.456;10.644;2022-09-13T00:10:43;11.60;99.90
30069;DHT22;16894;49.456;10.644;2022-09-13T00:13:11;11.50;99.90
30069;DHT22;16894;49.456;10.644;2022-09-13T00:15:42;11.50;99.90
30069;DHT22;16894;49.456;10.644;2022-09-13T00:18:08;11.50;99.90
30069;DHT22;16894;49.456;10.644;2022-09-13T00:20:33;11.40;99.90
30069;DHT22;16894;49.456;10.644;2022-09-13T00:22:59;11.30;99.90
30069;DHT22;16894;49.456;10.644;2022-09-13T00:25:25;11.30;99.90
30069;DHT22;16894;49.456;10.644;2022-09-13T00:27:50;11.30;99.90
30069;DHT22;16894;49.456;10.644;2022-09-13T00:30:16;11.30;99.90
30069;DHT22;16894;49.456;10.644;2022-09-13T00:32:41;11.30;99.90
30069;DHT22;16894;49.456;10.644;2022-09-13T00:35:07;11.30;99.90
30069;DHT22;16894;49.456;10.644;2022-09-13T00:37:33;11.30;99.90
30069;DHT22;16894;49.456;10.644;2022-09-13T00:40:00;11.30;99.90
30069;DHT22;16894;49.456;10.644;2022-09-13T00:42:30;11.20;99.90
30069;DHT22;16894;49.456;10.644;2022-09-13T00:45:00;11.10;99.90
30069;DHT22;16894;49.456;10.644;2022-09-13T00:50:00;11.10;99.90
30069;DHT22;16894;49.456;10.644;2022-09-13T00:52:28;11.00;99.90
30069;DHT22;16894;49.456;10.644;2022-09-13T00:55:02;10.90;99.90
30069;DHT22;16894;49.456;10.644;2022-09-13T00:57:30;10.80;99.90
30069;DHT22;16894;49.456;10.644;2022-09-13T01:00:05;10.90;99.90
30069;DHT22;16894;49.456;10.644;2022-09-13T01:02:49;11.00;99.90
30069;DHT22;16894;49.456;10.644;2022-09-13T01:05:18;10.90;99.90
30069;DHT22;16894;49.456;10.644;2022-09-13T01:07:45;10.90;99.90
30069;DHT22;16894;49.456;10.644;2022-09-13T01:10:11;10.90;99.90
30069;DHT22;16894;49.456;10.644;2022-09-13T01:15:10;11.00;99.90
30069;DHT22;16894;49.456;10.644;2022-09-13T01:17:36;11.00;99.90
30069;DHT22;16894;49.456;10.644;2022-09-13T01:20:06;11.00;99.90
30069;DHT22;16894;49.456;10.644;2022-09-13T01:28:44;10.80;99.90
30069;DHT22;16894;49.456;10.644;2022-09-13T01:31:10;10.80;99.90
30069;DHT22;16894;49.456;10.644;2022-09-13T01:33:58;10.70;99.90
30069;DHT22;16894;49.456;10.644;2022-09-13T01:42:52;10.60;99.90
30069;DHT22;16894;49.456;10.644;2022-09-13T01:45:52;10.60;99.90
30069;DHT22;16894;49.456;10.644;2022-09-13T01:53:50;10.60;99.90
30069;DHT22;16894;49.456;10.644;2022-09-13T01:56:37;10.60;99.90
30069;DHT22;16894;49.456;10.644;2022-09-13T02:00:06;10.60;99.90
30069;DHT22;16894;49.456;10.644;2022-09-13T02:02:09;10.60;99.90
30069;DHT22;16894;49.456;10.644;2022-09-13T02:04:49;10.70;99.90
30069;DHT22;16894;49.456;10.644;2022-09-13T02:07:42;10.70;99.90
30069;DHT22;16894;49.456;10.644;2022-09-13T02:10:46;10.70;99.90
30069;DHT22;16894;49.456;10.644;2022-09-13T02:13:17;10.60;99.90
30069;DHT22;16894;49.456;10.644;2022-09-13T02:15:50;10.50;99.90
30069;DHT22;16894;49.456;10.644;2022-09-13T02:18:29;10.50;99.90
30069;DHT22;16894;49.456;10.644;2022-09-13T02:21:01;10.40;99.90
30069;DHT22;16894;49.456;10.644;2022-09-13T02:23:51;10.40;99.90
30069;DHT22;16894;49.456;10.644;2022-09-13T02:26:20;10.30;99.90
30069;DHT22;16894;49.456;10.644;2022-09-13T02:28:50;10.40;99.90
30069;DHT22;16894;49.456;10.644;2022-09-13T02:31:42;10.40;99.90
30069;DHT22;16894;49.456;10.644;2022-09-13T02:34:18;10.50;99.90
30069;DHT22;16894;49.456;10.644;2022-09-13T02:36:46;10.40;99.90
30069;DHT22;16894;49.456;10.644;2022-09-13T02:39:18;10.30;99.90
30069;DHT22;16894;49.456;10.644;2022-09-13T02:42:07;10.30;99.90
30069;DHT22;16894;49.456;10.644;2022-09-13T02:44:40;10.20;99.90
30069;DHT22;16894;49.456;10.644;2022-09-13T02:55:33;10.20;99.90
30069;DHT22;16894;49.456;10.644;2022-09-13T02:58:13;10.30;99.90
30069;DHT22;16894;49.456;10.644;2022-09-13T03:00:41;10.20;99.90
30069;DHT22;16894;49.456;10.644;2022-09-13T03:03:10;10.30;99.90
30069;DHT22;16894;49.456;10.644;2022-09-13T03:05:36;10.40;99.90
30069;DHT22;16894;49.456;10.644;2022-09-13T03:08:03;10.30;99.90
30069;DHT22;16894;49.456;10.644;2022-09-13T03:22:23;10.00;99.90
30069;DHT22;16894;49.456;10.644;2022-09-13T03:24:49;10.00;99.90
30069;DHT22;16894;49.456;10.644;2022-09-13T03:27:39;10.20;99.90
30069;DHT22;16894;49.456;10.644;2022-09-13T03:30:10;10.10;99.90
30069;DHT22;16894;49.456;10.644;2022-09-13T03:40:47;10.30;99.90
30069;DHT22;16894;49.456;10.644;2022-09-13T03:43:46;10.30;99.90
30069;DHT22;16894;49.456;10.644;2022-09-13T03:46:20;10.30;99.90
30069;DHT22;16894;49.456;10.644;2022-09-13T03:48:48;10.30;99.90
30069;DHT22;16894;49.456;10.644;2022-09-13T03:51:14;10.30;99.90
30069;DHT22;16894;49.456;10.644;2022-09-13T03:53:45;10.30;99.90
30069;DHT22;16894;49.456;10.644;2022-09-13T03:56:16;10.40;99.90
30069;DHT22;16894;49.456;10.644;2022-09-13T03:58:42;10.30;99.90
30069;DHT22;16894;49.456;10.644;2022-09-13T04:01:08;10.30;99.90
30069;DHT22;16894;49.456;10.644;2022-09-13T04:03:36;10.30;99.90
30069;DHT22;16894;49.456;10.644;2022-09-13T04:06:01;10.20;99.90
30069;DHT22;16894;49.456;10.644;2022-09-13T04:08:27;10.20;99.90
30069;DHT22;16894;49.456;10.644;2022-09-13T04:10:53;10.20;99.90
30069;DHT22;16894;49.456;10.644;2022-09-13T04:13:19;10.10;99.90
30069;DHT22;16894;49.456;10.644;2022-09-13T04:15:47;10.10;99.90
30069;DHT22;16894;49.456;10.644;2022-09-13T04:18:12;10.00;99.90
30069;DHT22;16894;49.456;10.644;2022-09-13T04:20:38;10.10;99.90
30069;DHT22;16894;49.456;10.644;2022-09-13T04:23:03;10.20;99.90
30069;DHT22;16894;49.456;10.644;2022-09-13T04:25:29;10.00;99.90
30069;DHT22;16894;49.456;10.644;2022-09-13T04:27:56;10.00;99.90
30069;DHT22;16894;49.456;10.644;2022-09-13T04:30:24;10.00;99.90
30069;DHT22;16894;49.456;10.644;2022-09-13T04:32:50;10.00;99.90
30069;DHT22;16894;49.456;10.644;2022-09-13T04:35:15;10.00;99.90
30069;DHT22;16894;49.456;10.644;2022-09-13T04:37:42;10.10;99.90
30069;DHT22;16894;49.456;10.644;2022-09-13T04:40:09;10.10;99.90
30069;DHT22;16894;49.456;10.644;2022-09-13T04:42:35;10.10;99.90
30069;DHT22;16894;49.456;10.644;2022-09-13T04:45:01;10.10;99.90
30069;DHT22;16894;49.456;10.644;2022-09-13T04:47:26;10.10;99.90
30069;DHT22;16894;49.456;10.644;2022-09-13T04:49:52;10.10;99.90
30069;DHT22;16894;49.456;10.644;2022-09-13T04:52:17;10.10;99.90
30069;DHT22;16894;49.456;10.644;2022-09-13T04:54:43;10.10;99.90
30069;DHT22;16894;49.456;10.644;2022-09-13T04:57:09;10.10;99.90
30069;DHT22;16894;49.456;10.644;2022-09-13T04:59:34;10.00;99.90
30069;DHT22;16894;49.456;10.644;2022-09-13T05:02:00;9.90;99.90
30069;DHT22;16894;49.456;10.644;2022-09-13T05:04:25;9.90;99.90
30069;DHT22;16894;49.456;10.644;2022-09-13T05:06:51;10.00;99.90
30069;DHT22;16894;49.456;10.644;2022-09-13T05:09:17;9.90;99.90
30069;DHT22;16894;49.456;10.644;2022-09-13T05:11:42;9.90;99.90
30069;DHT22;16894;49.456;10.644;2022-09-13T05:14:09;9.90;99.90
30069;DHT22;16894;49.456;10.644;2022-09-13T05:16:35;10.00;99.90
30069;DHT22;16894;49.456;10.644;2022-09-13T05:19:01;10.10;99.90
30069;DHT22;16894;49.456;10.644;2022-09-13T05:21:27;10.20;99.90
30069;DHT22;16894;49.456;10.644;2022-09-13T05:23:54;10.20;99.90
30069;DHT22;16894;49.456;10.644;2022-09-13T05:26:22;10.30;99.90
30069;DHT22;16894;49.456;10.644;2022-09-13T05:28:48;10.30;99.90
30069;DHT22;16894;49.456;10.644;2022-09-13T05:31:23;10.30;99.90
30069;DHT22;16894;49.456;10.644;2022-09-13T05:33:53;10.40;99.90
30069;DHT22;16894;49.456;10.644;2022-09-13T05:36:19;10.50;99.90
30069;DHT22;16894;49.456;10.644;2022-09-13T05:38:45;10.60;99.90
30069;DHT22;16894;49.456;10.644;2022-09-13T05:41:10;10.70;99.90
30069;DHT22;16894;49.456;10.644;2022-09-13T05:43:36;10.70;99.90
30069;DHT22;16894;49.456;10.644;2022-09-13T05:46:07;10.80;99.90
30069;DHT22;16894;49.456;10.644;2022-09-13T05:48:34;10.90;99.90
30069;DHT22;16894;49.456;10.644;2022-09-13T05:51:07;11.00;99.90
30069;DHT22;16894;49.456;10.644;2022-09-13T05:53:34;11.10;99.90
30069;DHT22;16894;49.456;10.644;2022-09-13T05:56:00;11.10;99.90
30069;DHT22;16894;49.456;10.644;2022-09-13T05:58:26;11.20;99.90
30069;DHT22;16894;49.456;10.644;2022-09-13T06:00:53;11.20;99.90
30069;DHT22;16894;49.456;10.644;2022-09-13T06:03:20;11.20;99.90
30069;DHT22;16894;49.456;10.644;2022-09-13T06:05:45;11.30;99.90
30069;DHT22;16894;49.456;10.644;2022-09-13T06:08:11;11.40;99.90
30069;DHT22;16894;49.456;10.644;2022-09-13T06:10:37;11.40;99.90
30069;DHT22;16894;49.456;10.644;2022-09-13T06:13:02;11.50;99.90
30069;DHT22;16894;49.456;10.644;2022-09-13T06:15:28;11.60;99.90
30069;DHT22;16894;49.456;10.644;2022-09-13T06:17:53;11.70;99.90
30069;DHT22;16894;49.456;10.644;2022-09-13T06:20:19;11.80;99.90
30069;DHT22;16894;49.456;10.644;2022-09-13T06:22:47;11.90;99.90
30069;DHT22;16894;49.456;10.644;2022-09-13T06:25:12;12.00;99.90
30069;DHT22;16894;49.456;10.644;2022-09-13T06:27:38;12.00;99.90
30069;DHT22;16894;49.456;10.644;2022-09-13T06:30:04;11.90;99.90
30069;DHT22;16894;49.456;10.644;2022-09-13T06:32:33;12.00;99.90
30069;DHT22;16894;49.456;10.644;2022-09-13T06:34:59;12.10;99.90
30069;DHT22;16894;49.456;10.644;2022-09-13T06:37:24;12.10;99.90
30069;DHT22;16894;49.456;10.644;2022-09-13T06:39:50;12.10;99.90
30069;DHT22;16894;49.456;10.644;2022-09-13T06:42:16;12.20;99.90
30069;DHT22;16894;49.456;10.644;2022-09-13T06:44:42;12.30;99.90
30069;DHT22;16894;49.456;10.644;2022-09-13T06:47:10;12.30;99.90
30069;DHT22;16894;49.456;10.644;2022-09-13T06:49:36;12.40;99.90
30069;DHT22;16894;49.456;10.644;2022-09-13T06:52:01;12.50;99.90
30069;DHT22;16894;49.456;10.644;2022-09-13T06:54:27;12.60;99.90
30069;DHT22;16894;49.456;10.644;2022-09-13T06:56:53;12.60;99.90
30069;DHT22;16894;49.456;10.644;2022-09-13T06:59:19;12.70;99.90
30069;DHT22;16894;49.456;10.644;2022-09-13T07:01:44;12.70;99.90
30069;DHT22;16894;49.456;10.644;2022-09-13T07:04:13;12.80;99.90
30069;DHT22;16894;49.456;10.644;2022-09-13T07:06:41;12.90;99.90
30069;DHT22;16894;49.456;10.644;2022-09-13T07:09:11;13.00;99.90
30069;DHT22;16894;49.456;10.644;2022-09-13T07:11:39;13.10;99.90
30069;DHT22;16894;49.456;10.644;2022-09-13T07:14:06;13.20;99.90
30069;DHT22;16894;49.456;10.644;2022-09-13T07:16:34;13.40;99.90
30069;DHT22;16894;49.456;10.644;2022-09-13T07:19:03;13.40;99.90
30069;DHT22;16894;49.456;10.644;2022-09-13T07:21:31;13.50;99.90
30069;DHT22;16894;49.456;10.644;2022-09-13T07:23:56;13.70;99.90
30069;DHT22;16894;49.456;10.644;2022-09-13T07:26:23;13.80;99.90
30069;DHT22;16894;49.456;10.644;2022-09-13T07:28:51;13.90;99.90
30069;DHT22;16894;49.456;10.644;2022-09-13T07:31:31;13.90;99.90
30069;DHT22;16894;49.456;10.644;2022-09-13T07:34:02;14.00;99.90
30069;DHT22;16894;49.456;10.644;2022-09-13T07:36:30;14.20;99.90
30069;DHT22;16894;49.456;10.644;2022-09-13T07:38:57;14.30;99.90
30069;DHT22;16894;49.456;10.644;2022-09-13T07:41:23;14.40;99.90
30069;DHT22;16894;49.456;10.644;2022-09-13T07:43:49;14.50;99.90
30069;DHT22;16894;49.456;10.644;2022-09-13T07:46:27;14.50;99.90
30069;DHT22;16894;49.456;10.644;2022-09-13T07:48:54;14.70;99.90
30069;DHT22;16894;49.456;10.644;2022-09-13T07:51:22;14.80;99.90
30069;DHT22;16894;49.456;10.644;2022-09-13T07:53:51;14.90;99.90
30069;DHT22;16894;49.456;10.644;2022-09-13T07:56:19;15.00;99.90
30069;DHT22;16894;49.456;10.644;2022-09-13T07:58:47;15.30;99.90
30069;DHT22;16894;49.456;10.644;2022-09-13T08:01:17;15.50;99.90
30069;DHT22;16894;49.456;10.644;2022-09-13T08:03:43;15.70;99.90
30069;DHT22;16894;49.456;10.644;2022-09-13T08:06:09;15.90;99.90
30069;DHT22;16894;49.456;10.644;2022-09-13T08:08:36;16.10;99.90
30069;DHT22;16894;49.456;10.644;2022-09-13T08:11:03;16.40;99.90
30069;DHT22;16894;49.456;10.644;2022-09-13T08:13:29;16.70;99.90
30069;DHT22;16894;49.456;10.644;2022-09-13T08:16:00;16.90;99.90
30069;DHT22;16894;49.456;10.644;2022-09-13T08:18:27;17.00;99.90
30069;DHT22;16894;49.456;10.644;2022-09-13T08:20:55;17.00;99.90
30069;DHT22;16894;49.456;10.644;2022-09-13T08:23:22;17.10;99.90
30069;DHT22;16894;49.456;10.644;2022-09-13T08:25:48;17.10;99.90
30069;DHT22;16894;49.456;10.644;2022-09-13T08:28:18;17.30;99.90
30069;DHT22;16894;49.456;10.644;2022-09-13T08:30:46;17.40;99.90
30069;DHT22;16894;49.456;10.644;2022-09-13T08:33:12;17.60;99.90
30069;DHT22;16894;49.456;10.644;2022-09-13T08:35:38;18.00;99.90
30069;DHT22;16894;49.456;10.644;2022-09-13T08:38:05;18.20;99.90
30069;DHT22;16894;49.456;10.644;2022-09-13T08:40:38;18.30;99.90
30069;DHT22;16894;49.456;10.644;2022-09-13T08:46:01;18.60;99.90
30069;DHT22;16894;49.456;10.644;2022-09-13T08:48:34;18.60;99.90
30069;DHT22;16894;49.456;10.644;2022-09-13T08:51:05;18.70;99.90
30069;DHT22;16894;49.456;10.644;2022-09-13T08:53:42;18.80;99.90
30069;DHT22;16894;49.456;10.644;2022-09-13T08:56:28;18.80;99.90
30069;DHT22;16894;49.456;10.644;2022-09-13T09:07:11;18.80;99.90
30069;DHT22;16894;49.456;10.644;2022-09-13T09:09:54;18.90;99.90
30069;DHT22;16894;49.456;10.644;2022-09-13T09:12:40;19.00;99.90
30069;DHT22;16894;49.456;10.644;2022-09-13T09:15:28;19.30;99.90
30069;DHT22;16894;49.456;10.644;2022-09-13T09:18:29;19.40;99.90
30069;DHT22;16894;49.456;10.644;2022-09-13T09:20:57;19.40;99.90
30069;DHT22;16894;49.456;10.644;2022-09-13T09:23:37;19.50;99.90
30069;DHT22;16894;49.456;10.644;2022-09-13T09:26:24;19.50;99.90
30069;DHT22;16894;49.456;10.644;2022-09-13T09:29:00;19.50;99.90
30069;DHT22;16894;49.456;10.644;2022-09-13T09:37:29;19.10;99.90
30069;DHT22;16894;49.456;10.644;2022-09-13T09:40:00;19.30;99.90
30069;DHT22;16894;49.456;10.644;2022-09-13T09:42:45;19.30;99.90
30069;DHT22;16894;49.456;10.644;2022-09-13T09:45:27;19.60;99.90
30069;DHT22;16894;49.456;10.644;2022-09-13T09:47:55;19.70;99.90
30069;DHT22;16894;49.456;10.644;2022-09-13T09:50:25;19.60;99.90
30069;DHT22;16894;49.456;10.644;2022-09-13T09:53:03;19.50;99.90
30069;DHT22;16894;49.456;10.644;2022-09-13T09:58:10;19.60;99.90
30069;DHT22;16894;49.456;10.644;2022-09-13T10:00:50;19.70;99.90
30069;DHT22;16894;49.456;10.644;2022-09-13T10:03:18;19.70;99.90
30069;DHT22;16894;49.456;10.644;2022-09-13T10:05:45;19.80;99.90
30069;DHT22;16894;49.456;10.644;2022-09-13T10:08:34;19.90;99.90
30069;DHT22;16894;49.456;10.644;2022-09-13T10:11:02;20.10;99.90
30069;DHT22;16894;49.456;10.644;2022-09-13T10:13:29;20.30;99.90
30069;DHT22;16894;49.456;10.644;2022-09-13T10:15:56;20.70;99.90
30069;DHT22;16894;49.456;10.644;2022-09-13T10:18:22;21.10;99.90
30069;DHT22;16894;49.456;10.644;2022-09-13T10:23:27;21.60;99.90
30069;DHT22;16894;49.456;10.644;2022-09-13T10:26:09;21.80;99.90
30069;DHT22;16894;49.456;10.644;2022-09-13T10:28:46;22.00;99.90
30069;DHT22;16894;49.456;10.644;2022-09-13T10:31:17;22.00;99.90
30069;DHT22;16894;49.456;10.644;2022-09-13T10:36:18;21.80;99.90
30069;DHT22;16894;49.456;10.644;2022-09-13T10:38:58;21.70;99.90
30069;DHT22;16894;49.456;10.644;2022-09-13T10:41:26;22.00;99.90
30069;DHT22;16894;49.456;10.644;2022-09-13T10:43:57;22.50;99.90
30069;DHT22;16894;49.456;10.644;2022-09-13T10:46:24;22.50;99.90
30069;DHT22;16894;49.456;10.644;2022-09-13T10:48:50;22.40;99.90
30069;DHT22;16894;49.456;10.644;2022-09-13T10:56:34;22.50;99.90
30069;DHT22;16894;49.456;10.644;2022-09-13T10:59:22;22.40;99.90
30069;DHT22;16894;49.456;10.644;2022-09-13T11:08:20;22.90;99.90
30069;DHT22;16894;49.456;10.644;2022-09-13T11:11:02;22.80;99.90
30069;DHT22;16894;49.456;10.644;2022-09-13T11:13:52;22.70;99.90
30069;DHT22;16894;49.456;10.644;2022-09-13T11:38:18;21.50;99.90
30069;DHT22;16894;49.456;10.644;2022-09-13T11:51:57;21.30;99.90
30069;DHT22;16894;49.456;10.644;2022-09-13T11:57:37;21.50;99.90
30069;DHT22;16894;49.456;10.644;2022-09-13T12:03:15;21.50;99.90
30069;DHT22;16894;49.456;10.644;2022-09-13T12:05:50;21.60;99.90
30069;DHT22;16894;49.456;10.644;2022-09-13T12:08:24;21.60;99.90
30069;DHT22;16894;49.456;10.644;2022-09-13T12:10:58;21.60;99.90
30069;DHT22;16894;49.456;10.644;2022-09-13T12:13:51;21.70;99.90
30069;DHT22;16894;49.456;10.644;2022-09-13T12:17:06;22.00;99.90
30069;DHT22;16894;49.456;10.644;2022-09-13T12:19:14;22.60;99.90
30069;DHT22;16894;49.456;10.644;2022-09-13T12:21:43;23.20;99.90
30069;DHT22;16894;49.456;10.644;2022-09-13T12:27:06;24.20;99.90
30069;DHT22;16894;49.456;10.644;2022-09-13T12:32:19;24.00;98.50
30069;DHT22;16894;49.456;10.644;2022-09-13T12:35:06;23.60;99.90
30069;DHT22;16894;49.456;10.644;2022-09-13T12:48:38;22.50;99.90
30069;DHT22;16894;49.456;10.644;2022-09-13T12:57:13;22.10;99.90
30069;DHT22;16894;49.456;10.644;2022-09-13T13:02:42;22.10;99.90
30069;DHT22;16894;49.456;10.644;2022-09-13T13:05:25;22.30;99.90
30069;DHT22;16894;49.456;10.644;2022-09-13T13:10:44;22.10;99.90
30069;DHT22;16894;49.456;10.644;2022-09-13T13:18:54;22.20;99.90
30069;DHT22;16894;49.456;10.644;2022-09-13T13:21:38;22.20;99.90
30069;DHT22;16894;49.456;10.644;2022-09-13T13:29:29;22.20;99.90
30069;DHT22;16894;49.456;10.644;2022-09-13T13:34:44;22.10;99.90
30069;DHT22;16894;49.456;10.644;2022-09-13T13:39:46;22.10;99.90
30069;DHT22;16894;49.456;10.644;2022-09-13T13:42:23;22.10;99.90
30069;DHT22;16894;49.456;10.644;2022-09-13T13:55:46;21.80;99.90
30069;DHT22;16894;49.456;10.644;2022-09-13T14:00:32;21.60;99.90
30069;DHT22;16894;49.456;10.644;2022-09-13T14:10:31;22.00;99.90
30069;DHT22;16894;49.456;10.644;2022-09-13T14:21:27;22.20;99.90
30069;DHT22;16894;49.456;10.644;2022-09-13T14:24:22;22.20;99.90
30069;DHT22;16894;49.456;10.644;2022-09-13T14:26:58;22.20;99.90
30069;DHT22;16894;49.456;10.644;2022-09-13T14:29:26;22.20;99.90
30069;DHT22;16894;49.456;10.644;2022-09-13T14:31:55;22.30;99.90
30069;DHT22;16894;49.456;10.644;2022-09-13T14:34:31;22.40;99.90
30069;DHT22;16894;49.456;10.644;2022-09-13T14:37:00;22.50;99.90
30069;DHT22;16894;49.456;10.644;2022-09-13T14:39:27;22.70;99.90
30069;DHT22;16894;49.456;10.644;2022-09-13T14:42:01;22.80;99.90
30069;DHT22;16894;49.456;10.644;2022-09-13T14:44:28;23.00;99.90
30069;DHT22;16894;49.456;10.644;2022-09-13T14:49:35;22.90;99.90
30069;DHT22;16894;49.456;10.644;2022-09-13T14:52:07;22.80;99.90
30069;DHT22;16894;49.456;10.644;2022-09-13T14:54:42;22.60;99.90
30069;DHT22;16894;49.456;10.644;2022-09-13T14:57:19;22.60;99.90
30069;DHT22;16894;49.456;10.644;2022-09-13T14:59:49;22.60;99.90
30069;DHT22;16894;49.456;10.644;2022-09-13T15:02:20;22.70;99.90
30069;DHT22;16894;49.456;10.644;2022-09-13T15:04:58;22.90;99.90
30069;DHT22;16894;49.456;10.644;2022-09-13T15:07:29;22.80;99.90
30069;DHT22;16894;49.456;10.644;2022-09-13T15:09:57;22.60;99.90
30069;DHT22;16894;49.456;10.644;2022-09-13T15:12:29;22.40;99.90
30069;DHT22;16894;49.456;10.644;2022-09-13T15:15:21;22.50;99.90
30069;DHT22;16894;49.456;10.644;2022-09-13T15:20:21;22.40;99.90
30069;DHT22;16894;49.456;10.644;2022-09-13T15:22:47;22.50;99.90
30069;DHT22;16894;49.456;10.644;2022-09-13T15:25:26;22.60;99.90
30069;DHT22;16894;49.456;10.644;2022-09-13T15:27:54;22.50;99.90
30069;DHT22;16894;49.456;10.644;2022-09-13T15:30:29;22.50;99.90
30069;DHT22;16894;49.456;10.644;2022-09-13T15:35:43;22.30;99.90
30069;DHT22;16894;49.456;10.644;2022-09-13T15:38:23;22.20;99.90
30069;DHT22;16894;49.456;10.644;2022-09-13T15:41:11;22.20;99.90
30069;DHT22;16894;49.456;10.644;2022-09-13T15:43:37;22.20;99.90
30069;DHT22;16894;49.456;10.644;2022-09-13T15:46:04;22.10;99.90
30069;DHT22;16894;49.456;10.644;2022-09-13T15:48:34;22.20;99.90
30069;DHT22;16894;49.456;10.644;2022-09-13T15:51:10;22.20;99.90
30069;DHT22;16894;49.456;10.644;2022-09-13T15:53:38;22.20;99.90
30069;DHT22;16894;49.456;10.644;2022-09-13T15:56:05;22.30;99.90
30069;DHT22;16894;49.456;10.644;2022-09-13T15:58:32;22.30;99.90
30069;DHT22;16894;49.456;10.644;2022-09-13T16:00:58;22.20;99.90
30069;DHT22;16894;49.456;10.644;2022-09-13T16:03:24;22.20;99.90
30069;DHT22;16894;49.456;10.644;2022-09-13T16:05:49;22.30;99.90
30069;DHT22;16894;49.456;10.644;2022-09-13T16:08:15;22.10;99.90
30069;DHT22;16894;49.456;10.644;2022-09-13T16:10:41;22.00;99.90
30069;DHT22;16894;49.456;10.644;2022-09-13T16:13:06;22.00;99.90
30069;DHT22;16894;49.456;10.644;2022-09-13T16:15:32;21.90;99.90
30069;DHT22;16894;49.456;10.644;2022-09-13T16:17:57;21.80;99.90
30069;DHT22;16894;49.456;10.644;2022-09-13T16:20:23;21.70;99.90
30069;DHT22;16894;49.456;10.644;2022-09-13T16:22:52;21.50;99.90
30069;DHT22;16894;49.456;10.644;2022-09-13T16:25:18;21.40;99.90
30069;DHT22;16894;49.456;10.644;2022-09-13T16:27:43;21.30;99.90
30069;DHT22;16894;49.456;10.644;2022-09-13T16:30:15;21.30;99.90
30069;DHT22;16894;49.456;10.644;2022-09-13T16:32:41;21.30;99.90
30069;DHT22;16894;49.456;10.644;2022-09-13T16:35:07;21.20;99.90
30069;DHT22;16894;49.456;10.644;2022-09-13T16:37:33;21.00;99.90
30069;DHT22;16894;49.456;10.644;2022-09-13T16:39:58;20.90;99.90
30069;DHT22;16894;49.456;10.644;2022-09-13T16:42:24;20.80;99.90
30069;DHT22;16894;49.456;10.644;2022-09-13T16:44:50;20.70;99.90
30069;DHT22;16894;49.456;10.644;2022-09-13T16:47:16;20.60;99.90
30069;DHT22;16894;49.456;10.644;2022-09-13T16:49:42;20.60;99.90
30069;DHT22;16894;49.456;10.644;2022-09-13T16:52:08;20.50;99.90
30069;DHT22;16894;49.456;10.644;2022-09-13T16:54:34;20.50;99.90
30069;DHT22;16894;49.456;10.644;2022-09-13T16:57:02;20.40;99.90
30069;DHT22;16894;49.456;10.644;2022-09-13T16:59:29;20.40;99.90
30069;DHT22;16894;49.456;10.644;2022-09-13T17:01:55;20.40;99.90
30069;DHT22;16894;49.456;10.644;2022-09-13T17:04:21;20.30;99.90
30069;DHT22;16894;49.456;10.644;2022-09-13T17:06:46;20.30;99.90
30069;DHT22;16894;49.456;10.644;2022-09-13T17:09:12;20.20;99.90
30069;DHT22;16894;49.456;10.644;2022-09-13T17:11:40;20.20;99.90
30069;DHT22;16894;49.456;10.644;2022-09-13T17:14:08;20.10;99.90
30069;DHT22;16894;49.456;10.644;2022-09-13T17:16:47;20.00;99.90
30069;DHT22;16894;49.456;10.644;2022-09-13T17:19:17;20.00;99.90
30069;DHT22;16894;49.456;10.644;2022-09-13T17:21:43;19.90;99.90
30069;DHT22;16894;49.456;10.644;2022-09-13T17:24:09;19.90;99.90
30069;DHT22;16894;49.456;10.644;2022-09-13T17:26:35;19.80;99.90
30069;DHT22;16894;49.456;10.644;2022-09-13T17:29:00;19.70;99.90
30069;DHT22;16894;49.456;10.644;2022-09-13T17:31:26;19.60;99.90
30069;DHT22;16894;49.456;10.644;2022-09-13T17:33:52;19.60;99.90
30069;DHT22;16894;49.456;10.644;2022-09-13T17:36:18;19.50;99.90
30069;DHT22;16894;49.456;10.644;2022-09-13T17:38:44;19.50;99.90
30069;DHT22;16894;49.456;10.644;2022-09-13T17:41:15;19.40;99.90
30069;DHT22;16894;49.456;10.644;2022-09-13T17:43:42;19.30;99.90
30069;DHT22;16894;49.456;10.644;2022-09-13T17:46:14;19.30;99.90
30069;DHT22;16894;49.456;10.644;2022-09-13T17:48:41;19.20;99.90
30069;DHT22;16894;49.456;10.644;2022-09-13T17:51:11;19.30;99.90
30069;DHT22;16894;49.456;10.644;2022-09-13T17:53:39;19.20;99.90
30069;DHT22;16894;49.456;10.644;2022-09-13T17:56:05;19.20;99.90
30069;DHT22;16894;49.456;10.644;2022-09-13T17:58:32;19.20;99.90
30069;DHT22;16894;49.456;10.644;2022-09-13T18:01:06;19.20;99.90
30069;DHT22;16894;49.456;10.644;2022-09-13T18:03:33;19.10;99.90
30069;DHT22;16894;49.456;10.644;2022-09-13T18:06:00;19.00;99.90
30069;DHT22;16894;49.456;10.644;2022-09-13T18:08:28;18.90;99.90
30069;DHT22;16894;49.456;10.644;2022-09-13T18:11:00;18.90;99.90
30069;DHT22;16894;49.456;10.644;2022-09-13T18:13:25;18.90;99.90
30069;DHT22;16894;49.456;10.644;2022-09-13T18:16:06;18.90;99.90
30069;DHT22;16894;49.456;10.644;2022-09-13T18:18:36;18.90;99.90
30069;DHT22;16894;49.456;10.644;2022-09-13T18:21:03;18.80;99.90
30069;DHT22;16894;49.456;10.644;2022-09-13T18:23:29;18.80;99.90
30069;DHT22;16894;49.456;10.644;2022-09-13T18:26:02;18.80;99.90
30069;DHT22;16894;49.456;10.644;2022-09-13T18:28:29;18.70;99.90
30069;DHT22;16894;49.456;10.644;2022-09-13T18:30:57;18.60;99.90
30069;DHT22;16894;49.456;10.644;2022-09-13T18:33:23;18.50;99.90
30069;DHT22;16894;49.456;10.644;2022-09-13T18:35:59;18.50;99.90
30069;DHT22;16894;49.456;10.644;2022-09-13T18:38:26;18.50;99.90
30069;DHT22;16894;49.456;10.644;2022-09-13T18:41:08;18.50;99.90
30069;DHT22;16894;49.456;10.644;2022-09-13T18:43:35;18.50;99.90
30069;DHT22;16894;49.456;10.644;2022-09-13T18:46:04;18.50;99.90
30069;DHT22;16894;49.456;10.644;2022-09-13T18:48:35;18.40;99.90
30069;DHT22;16894;49.456;10.644;2022-09-13T18:51:01;18.40;99.90
30069;DHT22;16894;49.456;10.644;2022-09-13T18:53:28;18.30;99.90
30069;DHT22;16894;49.456;10.644;2022-09-13T18:55:53;18.30;99.90
30069;DHT22;16894;49.456;10.644;2022-09-13T18:58:21;18.30;99.90
30069;DHT22;16894;49.456;10.644;2022-09-13T19:01:02;18.30;99.90
30069;DHT22;16894;49.456;10.644;2022-09-13T19:03:28;18.20;99.90